CheckWX is a tool to help pilots better visualize weather data.  It is not intended as a substitute for an official pre-flight weather briefing.

09:20:42 UTC

KLRD METAR
Laredo International Airport
Laredo, Texas, USA
Current

25 mins ago

KLRD 170856Z AUTO 14011KT 10SM OVC023 28/23 A2995 RMK AO2 SLP138 T02780233 58002
Observed
Jul-17 @ 08:56 UTC
Wind
  • 140° at 11 KTS
Visibility
10 SM
Flight Rules
MVFR
Cloud Levels
  • Overcast at 2,300' AGL
Temperature
28°C / 82°F
Dewpoint
23°C / 73°F
Heat Index
31°C / 87°F
Humidity
74%
Altimeter
29.95" Hg
Pressure
1014.22 hPa
Previous

1 hour ago

KLRD 170818Z AUTO 14009KT 10SM BKN021 28/23 A2996 RMK AO2
Observed
Jul-17 @ 08:18 UTC
Wind
  • 140° at 9 KTS
Visibility
10 SM
Flight Rules
MVFR
Cloud Levels
  • Broken at 2,100' AGL
Temperature
28°C / 82°F
Dewpoint
23°C / 73°F
Heat Index
31°C / 87°F
Humidity
74%
Altimeter
29.96" Hg
Pressure
1014.52 hPa
Previous

1 hour ago

KLRD 170756Z AUTO 14012KT 10SM SCT021 28/23 A2996 RMK AO2 SLP140 T02780228
Observed
Jul-17 @ 07:56 UTC
Wind
  • 140° at 12 KTS
Visibility
10 SM
Flight Rules
VFR
Cloud Levels
  • Scattered at 2,100' AGL
Temperature
28°C / 82°F
Dewpoint
23°C / 73°F
Heat Index
31°C / 87°F
Humidity
74%
Altimeter
29.96" Hg
Pressure
1014.52 hPa